sensor_id;sensor_type;location;lat;lon;timestamp;temperature;humidity
41481;DHT22;27217;51.220;5.308;2023-03-01T00:01:12;0.90;99.90
41481;DHT22;27217;51.220;5.308;2023-03-01T00:03:38;1.10;99.90
41481;DHT22;27217;51.220;5.308;2023-03-01T00:06:04;1.00;99.90
41481;DHT22;27217;51.220;5.308;2023-03-01T00:08:31;1.00;99.90
41481;DHT22;27217;51.220;5.308;2023-03-01T00:11:20;1.20;99.90
41481;DHT22;27217;51.220;5.308;2023-03-01T00:13:48;1.00;99.90
41481;DHT22;27217;51.220;5.308;2023-03-01T00:16:18;1.30;99.90
41481;DHT22;27217;51.220;5.308;2023-03-01T00:18:45;0.80;99.90
41481;DHT22;27217;51.220;5.308;2023-03-01T00:21:11;0.80;99.90
41481;DHT22;27217;51.220;5.308;2023-03-01T00:23:37;0.90;99.90
41481;DHT22;27217;51.220;5.308;2023-03-01T00:26:09;0.90;99.90
41481;DHT22;27217;51.220;5.308;2023-03-01T00:28:36;0.90;99.90
41481;DHT22;27217;51.220;5.308;2023-03-01T00:31:10;0.80;99.90
41481;DHT22;27217;51.220;5.308;2023-03-01T00:33:36;0.70;99.90
41481;DHT22;27217;51.220;5.308;2023-03-01T00:36:03;0.60;99.90
41481;DHT22;27217;51.220;5.308;2023-03-01T00:38:29;0.50;99.90
41481;DHT22;27217;51.220;5.308;2023-03-01T00:40:55;0.90;99.90
41481;DHT22;27217;51.220;5.308;2023-03-01T00:43:24;0.80;99.90
41481;DHT22;27217;51.220;5.308;2023-03-01T00:45:50;0.70;99.90
41481;DHT22;27217;51.220;5.308;2023-03-01T00:48:16;0.70;99.90
41481;DHT22;27217;51.220;5.308;2023-03-01T00:50:42;0.70;99.90
41481;DHT22;27217;51.220;5.308;2023-03-01T00:53:08;0.80;99.90
41481;DHT22;27217;51.220;5.308;2023-03-01T00:55:36;0.60;99.90
41481;DHT22;27217;51.220;5.308;2023-03-01T00:58:02;0.60;99.90
41481;DHT22;27217;51.220;5.308;2023-03-01T01:00:27;0.70;99.90
41481;DHT22;27217;51.220;5.308;2023-03-01T01:02:53;0.90;99.90
41481;DHT22;27217;51.220;5.308;2023-03-01T01:05:19;0.60;99.90
41481;DHT22;27217;51.220;5.308;2023-03-01T01:07:47;0.50;99.90
41481;DHT22;27217;51.220;5.308;2023-03-01T01:10:13;0.60;99.90
41481;DHT22;27217;51.220;5.308;2023-03-01T01:12:43;0.60;99.90
41481;DHT22;27217;51.220;5.308;2023-03-01T01:15:09;0.60;99.90
41481;DHT22;27217;51.220;5.308;2023-03-01T01:17:38;0.50;99.90
41481;DHT22;27217;51.220;5.308;2023-03-01T01:20:06;0.80;99.90
41481;DHT22;27217;51.220;5.308;2023-03-01T01:22:33;0.50;99.90
41481;DHT22;27217;51.220;5.308;2023-03-01T01:24:58;0.30;99.90
41481;DHT22;27217;51.220;5.308;2023-03-01T01:27:24;0.70;99.90
41481;DHT22;27217;51.220;5.308;2023-03-01T01:29:52;0.30;99.90
41481;DHT22;27217;51.220;5.308;2023-03-01T01:32:18;0.50;99.90
41481;DHT22;27217;51.220;5.308;2023-03-01T01:34:44;0.40;99.90
41481;DHT22;27217;51.220;5.308;2023-03-01T01:37:10;0.30;99.90
41481;DHT22;27217;51.220;5.308;2023-03-01T01:39:36;0.40;99.90
41481;DHT22;27217;51.220;5.308;2023-03-01T01:42:01;0.30;99.90
41481;DHT22;27217;51.220;5.308;2023-03-01T01:44:28;0.30;99.90
41481;DHT22;27217;51.220;5.308;2023-03-01T01:46:55;0.40;99.90
41481;DHT22;27217;51.220;5.308;2023-03-01T01:52:00;0.40;99.90
41481;DHT22;27217;51.220;5.308;2023-03-01T01:54:38;0.60;99.90
41481;DHT22;27217;51.220;5.308;2023-03-01T01:57:09;0.30;99.90
41481;DHT22;27217;51.220;5.308;2023-03-01T01:59:37;0.20;99.90
41481;DHT22;27217;51.220;5.308;2023-03-01T02:02:04;0.20;99.90
41481;DHT22;27217;51.220;5.308;2023-03-01T02:04:31;0.40;99.90
41481;DHT22;27217;51.220;5.308;2023-03-01T02:07:19;0.30;99.90
41481;DHT22;27217;51.220;5.308;2023-03-01T02:09:52;0.10;99.90
41481;DHT22;27217;51.220;5.308;2023-03-01T02:12:20;0.20;99.90
41481;DHT22;27217;51.220;5.308;2023-03-01T02:14:47;0.10;99.90
41481;DHT22;27217;51.220;5.308;2023-03-01T02:17:15;0.10;99.90
41481;DHT22;27217;51.220;5.308;2023-03-01T02:25:18;0.10;99.90
41481;DHT22;27217;51.220;5.308;2023-03-01T02:30:13;-0.10;99.90
41481;DHT22;27217;51.220;5.308;2023-03-01T02:32:40;0.00;99.90
41481;DHT22;27217;51.220;5.308;2023-03-01T02:35:12;-0.30;99.90
41481;DHT22;27217;51.220;5.308;2023-03-01T02:37:40;0.10;99.90
41481;DHT22;27217;51.220;5.308;2023-03-01T02:40:11;-0.20;99.90
41481;DHT22;27217;51.220;5.308;2023-03-01T02:42:54;-0.20;99.90
41481;DHT22;27217;51.220;5.308;2023-03-01T02:45:21;0.00;99.90
41481;DHT22;27217;51.220;5.308;2023-03-01T02:47:49;-0.20;99.90
41481;DHT22;27217;51.220;5.308;2023-03-01T02:53:29;-0.20;99.90
41481;DHT22;27217;51.220;5.308;2023-03-01T02:55:57;-0.30;99.90
41481;DHT22;27217;51.220;5.308;2023-03-01T02:58:24;-0.20;99.90
41481;DHT22;27217;51.220;5.308;2023-03-01T03:00:51;-0.40;99.90
41481;DHT22;27217;51.220;5.308;2023-03-01T03:03:20;-0.40;99.90
41481;DHT22;27217;51.220;5.308;2023-03-01T03:05:46;-0.40;99.90
41481;DHT22;27217;51.220;5.308;2023-03-01T03:08:13;-0.30;99.90
41481;DHT22;27217;51.220;5.308;2023-03-01T03:10:41;-0.30;99.90
41481;DHT22;27217;51.220;5.308;2023-03-01T03:13:17;-0.40;99.90
41481;DHT22;27217;51.220;5.308;2023-03-01T03:15:44;-0.10;99.90
41481;DHT22;27217;51.220;5.308;2023-03-01T03:18:14;-0.20;99.90
41481;DHT22;27217;51.220;5.308;2023-03-01T03:20:42;-0.30;99.90
41481;DHT22;27217;51.220;5.308;2023-03-01T03:23:09;-0.30;99.90
41481;DHT22;27217;51.220;5.308;2023-03-01T03:25:35;-0.40;99.90
41481;DHT22;27217;51.220;5.308;2023-03-01T03:28:04;-0.20;99.90
41481;DHT22;27217;51.220;5.308;2023-03-01T03:30:36;0.10;99.90
41481;DHT22;27217;51.220;5.308;2023-03-01T03:33:05;-0.20;99.90
41481;DHT22;27217;51.220;5.308;2023-03-01T03:35:53;-0.50;99.90
41481;DHT22;27217;51.220;5.308;2023-03-01T03:38:19;-0.20;99.90
41481;DHT22;27217;51.220;5.308;2023-03-01T03:40:49;-0.40;99.90
41481;DHT22;27217;51.220;5.308;2023-03-01T03:43:21;-0.60;99.90
41481;DHT22;27217;51.220;5.308;2023-03-01T03:45:51;-0.70;99.90
41481;DHT22;27217;51.220;5.308;2023-03-01T03:48:18;-0.30;99.90
41481;DHT22;27217;51.220;5.308;2023-03-01T03:50:49;-0.50;99.90
41481;DHT22;27217;51.220;5.308;2023-03-01T03:53:15;-0.50;99.90
41481;DHT22;27217;51.220;5.308;2023-03-01T03:55:41;-0.40;99.90
41481;DHT22;27217;51.220;5.308;2023-03-01T03:58:09;-0.40;99.90
41481;DHT22;27217;51.220;5.308;2023-03-01T04:00:41;-0.50;99.90
41481;DHT22;27217;51.220;5.308;2023-03-01T04:03:08;-0.50;99.90
41481;DHT22;27217;51.220;5.308;2023-03-01T04:05:35;-0.40;99.90
41481;DHT22;27217;51.220;5.308;2023-03-01T04:08:02;-0.40;99.90
41481;DHT22;27217;51.220;5.308;2023-03-01T04:10:50;-0.50;99.90
41481;DHT22;27217;51.220;5.308;2023-03-01T04:13:18;-0.50;99.90
41481;DHT22;27217;51.220;5.308;2023-03-01T04:15:52;-0.20;99.90
41481;DHT22;27217;51.220;5.308;2023-03-01T04:18:21;-0.70;99.90
41481;DHT22;27217;51.220;5.308;2023-03-01T04:20:48;-0.10;99.90
41481;DHT22;27217;51.220;5.308;2023-03-01T04:23:19;-0.20;99.90
41481;DHT22;27217;51.220;5.308;2023-03-01T04:25:53;-0.40;99.90
41481;DHT22;27217;51.220;5.308;2023-03-01T04:28:27;-0.30;99.90
41481;DHT22;27217;51.220;5.308;2023-03-01T04:30:56;-0.60;99.90
41481;DHT22;27217;51.220;5.308;2023-03-01T04:33:22;-0.70;99.90
41481;DHT22;27217;51.220;5.308;2023-03-01T04:35:49;-0.80;99.90
41481;DHT22;27217;51.220;5.308;2023-03-01T04:38:16;-0.70;99.90
41481;DHT22;27217;51.220;5.308;2023-03-01T04:40:42;-0.50;99.90
41481;DHT22;27217;51.220;5.308;2023-03-01T04:43:09;-0.80;99.90
41481;DHT22;27217;51.220;5.308;2023-03-01T04:45:35;-0.80;99.90
41481;DHT22;27217;51.220;5.308;2023-03-01T04:48:02;-1.00;99.90
41481;DHT22;27217;51.220;5.308;2023-03-01T04:50:29;-0.70;99.90
41481;DHT22;27217;51.220;5.308;2023-03-01T04:52:56;-0.50;99.90
41481;DHT22;27217;51.220;5.308;2023-03-01T04:55:28;-0.80;99.90
41481;DHT22;27217;51.220;5.308;2023-03-01T04:57:55;-0.80;99.90
41481;DHT22;27217;51.220;5.308;2023-03-01T05:00:22;-0.60;99.90
41481;DHT22;27217;51.220;5.308;2023-03-01T05:02:52;-0.90;99.90
41481;DHT22;27217;51.220;5.308;2023-03-01T05:07:51;-0.60;99.90
41481;DHT22;27217;51.220;5.308;2023-03-01T05:10:17;-0.90;99.90
41481;DHT22;27217;51.220;5.308;2023-03-01T05:12:43;-1.00;99.90
41481;DHT22;27217;51.220;5.308;2023-03-01T05:15:09;-1.00;99.90
41481;DHT22;27217;51.220;5.308;2023-03-01T05:17:36;-1.00;99.90
41481;DHT22;27217;51.220;5.308;2023-03-01T05:20:02;-0.90;99.90
41481;DHT22;27217;51.220;5.308;2023-03-01T05:22:32;-1.10;99.90
41481;DHT22;27217;51.220;5.308;2023-03-01T05:24:58;-0.80;99.90
41481;DHT22;27217;51.220;5.308;2023-03-01T05:27:24;-0.90;99.90
41481;DHT22;27217;51.220;5.308;2023-03-01T05:29:50;-1.20;99.90
41481;DHT22;27217;51.220;5.308;2023-03-01T05:32:16;-1.10;99.90
41481;DHT22;27217;51.220;5.308;2023-03-01T05:34:42;-1.20;99.90
41481;DHT22;27217;51.220;5.308;2023-03-01T05:37:08;-1.10;99.90
41481;DHT22;27217;51.220;5.308;2023-03-01T05:39:34;-1.30;99.90
41481;DHT22;27217;51.220;5.308;2023-03-01T05:42:01;-1.00;99.90
41481;DHT22;27217;51.220;5.308;2023-03-01T05:44:30;-1.00;99.90
41481;DHT22;27217;51.220;5.308;2023-03-01T05:46:56;-1.10;99.90
41481;DHT22;27217;51.220;5.308;2023-03-01T05:49:23;-1.00;99.90
41481;DHT22;27217;51.220;5.308;2023-03-01T05:51:53;-1.20;99.90
41481;DHT22;27217;51.220;5.308;2023-03-01T05:54:22;-1.00;99.90
41481;DHT22;27217;51.220;5.308;2023-03-01T05:56:48;-1.00;99.90
41481;DHT22;27217;51.220;5.308;2023-03-01T05:59:14;-1.20;99.90
41481;DHT22;27217;51.220;5.308;2023-03-01T06:01:42;-1.30;99.90
41481;DHT22;27217;51.220;5.308;2023-03-01T06:04:08;-1.40;99.90
41481;DHT22;27217;51.220;5.308;2023-03-01T06:06:35;-1.40;99.90
41481;DHT22;27217;51.220;5.308;2023-03-01T06:09:03;-1.40;99.90
41481;DHT22;27217;51.220;5.308;2023-03-01T06:11:30;-1.20;99.90
41481;DHT22;27217;51.220;5.308;2023-03-01T06:13:56;-1.00;99.90
41481;DHT22;27217;51.220;5.308;2023-03-01T06:16:22;-1.30;99.90
41481;DHT22;27217;51.220;5.308;2023-03-01T06:18:48;-1.40;99.90
41481;DHT22;27217;51.220;5.308;2023-03-01T06:21:13;-1.50;99.90
41481;DHT22;27217;51.220;5.308;2023-03-01T06:23:39;-1.30;99.90
41481;DHT22;27217;51.220;5.308;2023-03-01T06:26:07;-1.20;99.90
41481;DHT22;27217;51.220;5.308;2023-03-01T06:28:33;-1.50;99.90
41481;DHT22;27217;51.220;5.308;2023-03-01T06:30:59;-1.30;99.90
41481;DHT22;27217;51.220;5.308;2023-03-01T06:33:25;-1.00;99.90
41481;DHT22;27217;51.220;5.308;2023-03-01T06:35:54;-1.00;99.90
41481;DHT22;27217;51.220;5.308;2023-03-01T06:38:20;-0.90;99.90
41481;DHT22;27217;51.220;5.308;2023-03-01T06:40:52;-0.80;99.90
41481;DHT22;27217;51.220;5.308;2023-03-01T06:43:19;-1.00;99.90
41481;DHT22;27217;51.220;5.308;2023-03-01T06:45:45;-0.60;99.90
41481;DHT22;27217;51.220;5.308;2023-03-01T06:48:11;-0.50;99.90
41481;DHT22;27217;51.220;5.308;2023-03-01T06:50:37;-1.00;99.90
41481;DHT22;27217;51.220;5.308;2023-03-01T06:53:03;-1.00;99.90
41481;DHT22;27217;51.220;5.308;2023-03-01T06:55:30;-0.40;99.90
41481;DHT22;27217;51.220;5.308;2023-03-01T06:58:00;-0.90;99.90
41481;DHT22;27217;51.220;5.308;2023-03-01T07:00:26;-1.10;99.90
41481;DHT22;27217;51.220;5.308;2023-03-01T07:02:53;-1.20;99.90
41481;DHT22;27217;51.220;5.308;2023-03-01T07:05:19;-1.00;99.90
41481;DHT22;27217;51.220;5.308;2023-03-01T07:07:45;-1.00;99.90
41481;DHT22;27217;51.220;5.308;2023-03-01T07:10:14;-0.70;99.90
41481;DHT22;27217;51.220;5.308;2023-03-01T07:12:40;-0.70;99.90
41481;DHT22;27217;51.220;5.308;2023-03-01T07:15:08;-0.40;99.90
41481;DHT22;27217;51.220;5.308;2023-03-01T07:17:34;-0.80;99.90
41481;DHT22;27217;51.220;5.308;2023-03-01T07:20:00;-0.60;99.90
41481;DHT22;27217;51.220;5.308;2023-03-01T07:22:26;-0.50;99.90
41481;DHT22;27217;51.220;5.308;2023-03-01T07:24:52;-0.40;99.90
41481;DHT22;27217;51.220;5.308;2023-03-01T07:27:18;0.00;99.90
41481;DHT22;27217;51.220;5.308;2023-03-01T07:29:44;-0.30;99.90
41481;DHT22;27217;51.220;5.308;2023-03-01T07:32:10;-0.10;99.90
41481;DHT22;27217;51.220;5.308;2023-03-01T07:34:36;0.20;99.90
41481;DHT22;27217;51.220;5.308;2023-03-01T07:37:02;0.00;99.90
41481;DHT22;27217;51.220;5.308;2023-03-01T07:39:28;0.40;99.90
41481;DHT22;27217;51.220;5.308;2023-03-01T07:41:54;-0.10;99.90
41481;DHT22;27217;51.220;5.308;2023-03-01T07:44:20;0.00;99.90
41481;DHT22;27217;51.220;5.308;2023-03-01T07:46:45;-0.10;99.90
41481;DHT22;27217;51.220;5.308;2023-03-01T07:49:13;0.00;99.90
41481;DHT22;27217;51.220;5.308;2023-03-01T07:51:38;-0.10;99.90
41481;DHT22;27217;51.220;5.308;2023-03-01T07:54:05;-0.10;99.90
41481;DHT22;27217;51.220;5.308;2023-03-01T07:56:31;0.30;99.90
41481;DHT22;27217;51.220;5.308;2023-03-01T07:58:59;0.00;99.90
41481;DHT22;27217;51.220;5.308;2023-03-01T08:01:27;0.20;99.90
41481;DHT22;27217;51.220;5.308;2023-03-01T08:03:53;0.50;99.90
41481;DHT22;27217;51.220;5.308;2023-03-01T08:06:20;0.30;99.90
41481;DHT22;27217;51.220;5.308;2023-03-01T08:08:46;0.50;99.90
41481;DHT22;27217;51.220;5.308;2023-03-01T08:11:12;0.70;99.90
41481;DHT22;27217;51.220;5.308;2023-03-01T08:13:38;0.60;99.90
41481;DHT22;27217;51.220;5.308;2023-03-01T08:16:07;0.80;99.90
41481;DHT22;27217;51.220;5.308;2023-03-01T08:18:33;0.90;99.90
41481;DHT22;27217;51.220;5.308;2023-03-01T08:21:09;1.30;99.90
41481;DHT22;27217;51.220;5.308;2023-03-01T08:23:35;1.00;99.90
41481;DHT22;27217;51.220;5.308;2023-03-01T08:28:31;1.20;99.90
41481;DHT22;27217;51.220;5.308;2023-03-01T08:30:57;1.30;99.90
41481;DHT22;27217;51.220;5.308;2023-03-01T08:33:23;1.50;99.90
41481;DHT22;27217;51.220;5.308;2023-03-01T08:35:49;1.30;99.90
41481;DHT22;27217;51.220;5.308;2023-03-01T08:38:14;1.30;99.90
41481;DHT22;27217;51.220;5.308;2023-03-01T08:40:40;1.60;99.90
41481;DHT22;27217;51.220;5.308;2023-03-01T08:43:05;1.50;99.90
41481;DHT22;27217;51.220;5.308;2023-03-01T08:45:31;1.60;99.90
41481;DHT22;27217;51.220;5.308;2023-03-01T08:47:57;1.60;99.90
41481;DHT22;27217;51.220;5.308;2023-03-01T08:50:23;1.70;99.90
41481;DHT22;27217;51.220;5.308;2023-03-01T08:52:50;1.70;99.90
41481;DHT22;27217;51.220;5.308;2023-03-01T08:55:16;1.80;99.90
41481;DHT22;27217;51.220;5.308;2023-03-01T08:57:43;1.80;99.90
41481;DHT22;27217;51.220;5.308;2023-03-01T09:00:10;1.80;99.90
41481;DHT22;27217;51.220;5.308;2023-03-01T09:02:37;1.90;99.90
41481;DHT22;27217;51.220;5.308;2023-03-01T09:05:03;2.10;99.90
41481;DHT22;27217;51.220;5.308;2023-03-01T09:07:29;2.20;99.90
41481;DHT22;27217;51.220;5.308;2023-03-01T09:09:55;2.50;99.90
41481;DHT22;27217;51.220;5.308;2023-03-01T09:12:21;2.60;99.90
41481;DHT22;27217;51.220;5.308;2023-03-01T09:14:47;2.70;99.90
41481;DHT22;27217;51.220;5.308;2023-03-01T09:17:13;2.90;99.90
41481;DHT22;27217;51.220;5.308;2023-03-01T09:19:39;3.10;99.90
41481;DHT22;27217;51.220;5.308;2023-03-01T09:22:04;3.20;99.90
41481;DHT22;27217;51.220;5.308;2023-03-01T09:24:30;3.50;99.90
41481;DHT22;27217;51.220;5.308;2023-03-01T09:26:56;3.40;99.90
41481;DHT22;27217;51.220;5.308;2023-03-01T09:29:23;3.40;99.90
41481;DHT22;27217;51.220;5.308;2023-03-01T09:31:48;3.40;99.90
41481;DHT22;27217;51.220;5.308;2023-03-01T09:34:14;3.20;99.90
41481;DHT22;27217;51.220;5.308;2023-03-01T09:36:44;3.30;99.90
41481;DHT22;27217;51.220;5.308;2023-03-01T09:39:10;3.20;99.90
41481;DHT22;27217;51.220;5.308;2023-03-01T09:44:31;3.40;99.90
41481;DHT22;27217;51.220;5.308;2023-03-01T09:46:59;3.50;99.90
41481;DHT22;27217;51.220;5.308;2023-03-01T09:49:30;3.60;99.90
41481;DHT22;27217;51.220;5.308;2023-03-01T09:52:27;3.50;99.90
41481;DHT22;27217;51.220;5.308;2023-03-01T09:54:55;3.60;99.90
41481;DHT22;27217;51.220;5.308;2023-03-01T09:57:35;3.70;99.90
41481;DHT22;27217;51.220;5.308;2023-03-01T10:02:51;4.10;99.90
41481;DHT22;27217;51.220;5.308;2023-03-01T10:08:38;4.20;99.90
41481;DHT22;27217;51.220;5.308;2023-03-01T10:11:27;4.30;99.90
41481;DHT22;27217;51.220;5.308;2023-03-01T10:19:04;4.50;99.90
41481;DHT22;27217;51.220;5.308;2023-03-01T10:21:31;4.70;99.90
41481;DHT22;27217;51.220;5.308;2023-03-01T10:24:15;4.70;99.90
41481;DHT22;27217;51.220;5.308;2023-03-01T10:26:54;5.10;99.90
41481;DHT22;27217;51.220;5.308;2023-03-01T10:29:30;5.20;99.90
41481;DHT22;27217;51.220;5.308;2023-03-01T10:32:04;5.20;99.90
41481;DHT22;27217;51.220;5.308;2023-03-01T10:34:35;5.40;99.90
41481;DHT22;27217;51.220;5.308;2023-03-01T10:37:21;4.90;99.90
41481;DHT22;27217;51.220;5.308;2023-03-01T10:42:32;5.20;99.90
41481;DHT22;27217;51.220;5.308;2023-03-01T10:48:14;5.20;99.90
41481;DHT22;27217;51.220;5.308;2023-03-01T10:50:45;5.20;99.90
41481;DHT22;27217;51.220;5.308;2023-03-01T10:58:27;5.80;99.10
41481;DHT22;27217;51.220;5.308;2023-03-01T11:01:23;6.00;98.70
41481;DHT22;27217;51.220;5.308;2023-03-01T11:06:37;8.70;90.00
41481;DHT22;27217;51.220;5.308;2023-03-01T11:09:18;9.80;82.10
41481;DHT22;27217;51.220;5.308;2023-03-01T11:11:45;10.70;75.30
41481;DHT22;27217;51.220;5.308;2023-03-01T11:14:25;11.30;69.70
41481;DHT22;27217;51.220;5.308;2023-03-01T11:17:04;11.10;68.30
41481;DHT22;27217;51.220;5.308;2023-03-01T11:19:31;11.80;67.60
41481;DHT22;27217;51.220;5.308;2023-03-01T11:22:07;11.50;65.50
41481;DHT22;27217;51.220;5.308;2023-03-01T11:24:45;11.30;65.20
41481;DHT22;27217;51.220;5.308;2023-03-01T11:27:41;11.40;64.70
41481;DHT22;27217;51.220;5.308;2023-03-01T11:30:32;12.20;62.20
41481;DHT22;27217;51.220;5.308;2023-03-01T11:33:10;12.70;60.80
41481;DHT22;27217;51.220;5.308;2023-03-01T11:35:42;13.50;57.80
41481;DHT22;27217;51.220;5.308;2023-03-01T11:40:54;13.50;57.10
41481;DHT22;27217;51.220;5.308;2023-03-01T11:43:33;13.70;54.90
41481;DHT22;27217;51.220;5.308;2023-03-01T12:08:21;14.90;50.50
41481;DHT22;27217;51.220;5.308;2023-03-01T12:19:24;14.40;50.00
41481;DHT22;27217;51.220;5.308;2023-03-01T12:30:09;16.50;47.40
41481;DHT22;27217;51.220;5.308;2023-03-01T12:41:01;16.70;46.30
41481;DHT22;27217;51.220;5.308;2023-03-01T12:52:29;16.90;44.60
41481;DHT22;27217;51.220;5.308;2023-03-01T12:54:36;16.80;44.40
41481;DHT22;27217;51.220;5.308;2023-03-01T12:57:33;17.30;43.90
41481;DHT22;27217;51.220;5.308;2023-03-01T13:00:26;17.50;44.00
41481;DHT22;27217;51.220;5.308;2023-03-01T13:03:06;17.90;42.90
41481;DHT22;27217;51.220;5.308;2023-03-01T13:08:19;17.60;43.30
41481;DHT22;27217;51.220;5.308;2023-03-01T13:11:07;18.40;42.80
41481;DHT22;27217;51.220;5.308;2023-03-01T13:13:37;18.30;42.30
41481;DHT22;27217;51.220;5.308;2023-03-01T13:21:34;17.40;43.80
41481;DHT22;27217;51.220;5.308;2023-03-01T13:24:00;17.00;44.10
41481;DHT22;27217;51.220;5.308;2023-03-01T13:26:26;16.10;45.10
41481;DHT22;27217;51.220;5.308;2023-03-01T13:28:54;15.10;46.10
41481;DHT22;27217;51.220;5.308;2023-03-01T13:38:57;15.80;45.40
41481;DHT22;27217;51.220;5.308;2023-03-01T13:47:34;18.20;43.30
41481;DHT22;27217;51.220;5.308;2023-03-01T13:49:56;18.30;42.00
41481;DHT22;27217;51.220;5.308;2023-03-01T13:54:54;18.30;41.80
41481;DHT22;27217;51.220;5.308;2023-03-01T13:57:24;18.30;41.70
41481;DHT22;27217;51.220;5.308;2023-03-01T13:59:53;19.00;41.60
41481;DHT22;27217;51.220;5.308;2023-03-01T14:02:20;18.50;42.10
41481;DHT22;27217;51.220;5.308;2023-03-01T14:04:57;17.90;42.40
41481;DHT22;27217;51.220;5.308;2023-03-01T14:07:25;18.60;42.30
41481;DHT22;27217;51.220;5.308;2023-03-01T14:09:54;17.90;42.10
41481;DHT22;27217;51.220;5.308;2023-03-01T14:20:27;17.70;42.70
41481;DHT22;27217;51.220;5.308;2023-03-01T14:23:01;18.00;43.20
41481;DHT22;27217;51.220;5.308;2023-03-01T14:25:35;18.10;41.90
41481;DHT22;27217;51.220;5.308;2023-03-01T14:28:31;18.20;42.30
41481;DHT22;27217;51.220;5.308;2023-03-01T14:31:03;18.50;42.20
41481;DHT22;27217;51.220;5.308;2023-03-01T14:33:30;18.10;42.20
41481;DHT22;27217;51.220;5.308;2023-03-01T14:36:04;18.20;42.00
41481;DHT22;27217;51.220;5.308;2023-03-01T14:38:40;18.10;42.40
41481;DHT22;27217;51.220;5.308;2023-03-01T14:41:17;17.10;42.80
41481;DHT22;27217;51.220;5.308;2023-03-01T14:44:00;16.90;44.10
41481;DHT22;27217;51.220;5.308;2023-03-01T14:46:34;17.20;43.70
41481;DHT22;27217;51.220;5.308;2023-03-01T14:49:04;16.70;44.20
41481;DHT22;27217;51.220;5.308;2023-03-01T14:51:38;16.00;45.90
41481;DHT22;27217;51.220;5.308;2023-03-01T14:54:28;16.20;45.70
41481;DHT22;27217;51.220;5.308;2023-03-01T14:56:59;15.90;46.20
41481;DHT22;27217;51.220;5.308;2023-03-01T14:59:26;15.10;46.40
41481;DHT22;27217;51.220;5.308;2023-03-01T15:01:55;15.30;46.50
41481;DHT22;27217;51.220;5.308;2023-03-01T15:04:21;16.20;45.40
41481;DHT22;27217;51.220;5.308;2023-03-01T15:06:51;16.70;44.10
41481;DHT22;27217;51.220;5.308;2023-03-01T15:09:17;16.60;44.40
41481;DHT22;27217;51.220;5.308;2023-03-01T15:11:44;16.60;44.10
41481;DHT22;27217;51.220;5.308;2023-03-01T15:14:41;16.80;44.20
41481;DHT22;27217;51.220;5.308;2023-03-01T15:19:54;17.10;44.00
41481;DHT22;27217;51.220;5.308;2023-03-01T15:22:21;16.90;43.80
41481;DHT22;27217;51.220;5.308;2023-03-01T15:24:49;17.10;43.70
41481;DHT22;27217;51.220;5.308;2023-03-01T15:27:20;17.30;42.80
41481;DHT22;27217;51.220;5.308;2023-03-01T15:29:55;17.20;43.40
41481;DHT22;27217;51.220;5.308;2023-03-01T15:35:00;17.40;42.70
41481;DHT22;27217;51.220;5.308;2023-03-01T15:37:44;17.00;42.80
41481;DHT22;27217;51.220;5.308;2023-03-01T15:40:27;16.40;43.40
41481;DHT22;27217;51.220;5.308;2023-03-01T15:43:00;15.70;44.30
41481;DHT22;27217;51.220;5.308;2023-03-01T15:45:29;15.90;44.70
41481;DHT22;27217;51.220;5.308;2023-03-01T15:47:55;15.50;45.00
41481;DHT22;27217;51.220;5.308;2023-03-01T15:52:54;16.20;44.00
41481;DHT22;27217;51.220;5.308;2023-03-01T15:55:23;16.70;43.80
41481;DHT22;27217;51.220;5.308;2023-03-01T15:57:49;15.70;44.90
41481;DHT22;27217;51.220;5.308;2023-03-01T16:00:23;15.60;45.80
41481;DHT22;27217;51.220;5.308;2023-03-01T16:02:48;14.90;46.60
41481;DHT22;27217;51.220;5.308;2023-03-01T16:05:30;14.80;46.30
41481;DHT22;27217;51.220;5.308;2023-03-01T16:07:59;15.60;45.50
41481;DHT22;27217;51.220;5.308;2023-03-01T16:10:26;15.40;45.60
41481;DHT22;27217;51.220;5.308;2023-03-01T16:12:53;15.70;45.30
41481;DHT22;27217;51.220;5.308;2023-03-01T16:15:24;15.10;45.60
41481;DHT22;27217;51.220;5.308;2023-03-01T16:17:53;15.10;46.40
41481;DHT22;27217;51.220;5.308;2023-03-01T16:20:20;15.70;45.60
41481;DHT22;27217;51.220;5.308;2023-03-01T16:22:46;15.50;46.10
41481;DHT22;27217;51.220;5.308;2023-03-01T16:25:17;15.60;45.90
41481;DHT22;27217;51.220;5.308;2023-03-01T16:27:49;15.60;46.80
41481;DHT22;27217;51.220;5.308;2023-03-01T16:30:18;15.10;46.60
41481;DHT22;27217;51.220;5.308;2023-03-01T16:32:46;13.60;47.60
41481;DHT22;27217;51.220;5.308;2023-03-01T16:35:14;13.40;48.60
41481;DHT22;27217;51.220;5.308;2023-03-01T16:37:41;13.10;49.10
41481;DHT22;27217;51.220;5.308;2023-03-01T16:40:23;12.60;49.80
41481;DHT22;27217;51.220;5.308;2023-03-01T16:42:50;11.90;50.50
41481;DHT22;27217;51.220;5.308;2023-03-01T16:45:18;11.00;52.90
41481;DHT22;27217;51.220;5.308;2023-03-01T16:47:44;10.00;55.20
41481;DHT22;27217;51.220;5.308;2023-03-01T16:50:10;9.40;57.10
41481;DHT22;27217;51.220;5.308;2023-03-01T16:52:37;9.30;58.20
41481;DHT22;27217;51.220;5.308;2023-03-01T16:55:04;9.10;59.30
41481;DHT22;27217;51.220;5.308;2023-03-01T16:57:33;8.70;60.60
41481;DHT22;27217;51.220;5.308;2023-03-01T16:59:59;8.30;63.20
41481;DHT22;27217;51.220;5.308;2023-03-01T17:02:25;8.20;64.20
41481;DHT22;27217;51.220;5.308;2023-03-01T17:04:55;8.20;64.70
41481;DHT22;27217;51.220;5.308;2023-03-01T17:07:21;7.90;65.60
41481;DHT22;27217;51.220;5.308;2023-03-01T17:09:47;7.80;67.10
41481;DHT22;27217;51.220;5.308;2023-03-01T17:12:15;7.80;67.00
41481;DHT22;27217;51.220;5.308;2023-03-01T17:14:41;7.90;67.70
41481;DHT22;27217;51.220;5.308;2023-03-01T17:17:08;7.70;68.30
41481;DHT22;27217;51.220;5.308;2023-03-01T17:19:35;7.70;68.50
41481;DHT22;27217;51.220;5.308;2023-03-01T17:22:05;7.60;69.30
41481;DHT22;27217;51.220;5.308;2023-03-01T17:24:35;7.40;70.90
41481;DHT22;27217;51.220;5.308;2023-03-01T17:27:01;7.40;70.70
41481;DHT22;27217;51.220;5.308;2023-03-01T17:29:27;7.20;71.30
41481;DHT22;27217;51.220;5.308;2023-03-01T17:31:53;7.30;72.50
41481;DHT22;27217;51.220;5.308;2023-03-01T17:34:21;7.20;72.50
41481;DHT22;27217;51.220;5.308;2023-03-01T17:36:47;7.10;73.20
41481;DHT22;27217;51.220;5.308;2023-03-01T17:39:15;6.80;74.30
41481;DHT22;27217;51.220;5.308;2023-03-01T17:41:41;6.70;75.70
41481;DHT22;27217;51.220;5.308;2023-03-01T17:44:07;6.50;76.50
41481;DHT22;27217;51.220;5.308;2023-03-01T17:46:33;6.60;76.70
41481;DHT22;27217;51.220;5.308;2023-03-01T17:48:59;6.50;77.20
41481;DHT22;27217;51.220;5.308;2023-03-01T17:51:25;6.30;78.20
41481;DHT22;27217;51.220;5.308;2023-03-01T17:53:51;6.30;79.20
41481;DHT22;27217;51.220;5.308;2023-03-01T17:56:17;6.30;79.30
41481;DHT22;27217;51.220;5.308;2023-03-01T17:58:43;6.20;80.20
41481;DHT22;27217;51.220;5.308;2023-03-01T18:01:17;6.20;80.40
41481;DHT22;27217;51.220;5.308;2023-03-01T18:03:43;6.10;81.20
41481;DHT22;27217;51.220;5.308;2023-03-01T18:08:37;6.10;81.30
41481;DHT22;27217;51.220;5.308;2023-03-01T18:11:04;6.10;82.10
41481;DHT22;27217;51.220;5.308;2023-03-01T18:13:30;6.00;82.60
41481;DHT22;27217;51.220;5.308;2023-03-01T18:15:56;6.00;83.50
41481;DHT22;27217;51.220;5.308;2023-03-01T18:18:26;5.90;84.30